createdAt,value
2023-10-31T00:02:19.973Z,38.1
2023-10-31T00:08:12.129Z,38
2023-10-31T00:14:03.611Z,37.9
2023-10-31T00:20:06.743Z,37.9
2023-10-31T00:25:58.285Z,37.8
2023-10-31T00:31:50.009Z,37.8
2023-10-31T00:37:43.044Z,37.7
2023-10-31T00:43:35.997Z,37.6
2023-10-31T00:49:12.497Z,37.6
2023-10-31T00:54:48.929Z,37.5
2023-10-31T01:00:24.835Z,37.5
2023-10-31T01:06:01.885Z,37.4
2023-10-31T01:11:53.623Z,37.4
2023-10-31T01:17:30.523Z,37.3
2023-10-31T01:23:22.615Z,37.3
2023-10-31T01:28:59.576Z,37.3
2023-10-31T01:35:08.181Z,37.2
2023-10-31T01:40:44.374Z,37.1
2023-10-31T01:46:36.021Z,37.1
2023-10-31T01:52:28.422Z,37
2023-10-31T01:58:04.744Z,36.9
2023-10-31T02:03:56.877Z,36.9
2023-10-31T02:09:48.662Z,36.9
2023-10-31T02:15:39.687Z,36.8
2023-10-31T02:21:31.722Z,36.8
2023-10-31T02:27:23.915Z,36.7
2023-10-31T02:33:16.608Z,36.6
2023-10-31T02:39:08.246Z,36.6
2023-10-31T02:44:44.905Z,36.6
2023-10-31T02:50:36.721Z,36.5
2023-10-31T02:56:27.989Z,36.4
2023-10-31T03:02:19.583Z,36.4
2023-10-31T03:08:11.616Z,36.4
2023-10-31T03:14:03.172Z,36.3
2023-10-31T03:19:40.661Z,36.3
2023-10-31T03:25:31.600Z,36.2
2023-10-31T03:31:23.554Z,36.1
2023-10-31T03:37:16.271Z,36.1
2023-10-31T03:43:08.057Z,36.1
2023-10-31T03:48:59.599Z,35.9
2023-10-31T03:54:35.789Z,35.6
2023-10-31T04:00:11.933Z,35.5
2023-10-31T04:05:48.709Z,35.4
2023-10-31T04:11:24.825Z,35.3
2023-10-31T04:17:01.168Z,35.2
2023-10-31T04:22:38.130Z,35.1
2023-10-31T04:28:30.447Z,35.1
2023-10-31T04:34:40.009Z,35
2023-10-31T04:40:34.547Z,34.9
2023-10-31T04:46:27.188Z,34.9
2023-10-31T04:52:04.538Z,34.8
2023-10-31T04:57:44.063Z,34.8
2023-10-31T05:03:20.908Z,34.7
2023-10-31T05:09:11.627Z,34.6
2023-10-31T05:14:51.011Z,34.6
2023-10-31T05:20:28.598Z,34.5
2023-10-31T05:26:05.799Z,34.4
2023-10-31T05:31:59.389Z,34.4
2023-10-31T05:37:36.422Z,34.3
2023-10-31T05:43:27.704Z,34.3
2023-10-31T05:49:06.021Z,34.3
2023-10-31T05:54:58.132Z,34.3
2023-10-31T06:00:50.310Z,34.4
2023-10-31T06:06:43.893Z,34.2
2023-10-31T06:12:36.519Z,33.9
2023-10-31T06:18:29.420Z,33.7
2023-10-31T06:24:22.582Z,33.6
2023-10-31T06:31:13.353Z,25.8
2023-10-31T06:37:05.170Z,28.8
2023-10-31T06:42:41.773Z,29.5
2023-10-31T06:48:38.092Z,36.5
2023-10-31T06:54:31.826Z,35.5
2023-10-31T07:00:08.480Z,36.3
2023-10-31T07:05:46.582Z,37.4
2023-10-31T07:11:24.705Z,38.5
2023-10-31T07:17:16.973Z,39.6
2023-10-31T07:23:08.926Z,40.6
2023-10-31T07:29:00.689Z,41.7
2023-10-31T07:34:39.861Z,42.6
2023-10-31T07:40:32.240Z,43.4
2023-10-31T07:46:09.292Z,44.3
2023-10-31T07:51:31.066Z,45.1
2023-10-31T07:57:26.730Z,46
2023-10-31T08:03:19.140Z,47
2023-10-31T08:09:11.574Z,47.9
2023-10-31T08:15:04.208Z,48.8
2023-10-31T08:20:56.291Z,49.6
2023-10-31T08:26:47.911Z,50.5
2023-10-31T08:32:40.167Z,51.4
2023-10-31T08:38:43.138Z,52.3
2023-10-31T08:44:34.418Z,52.9
2023-10-31T08:50:28.460Z,53.8
2023-10-31T08:56:04.078Z,54.5
2023-10-31T09:01:56.206Z,55.1
2023-10-31T09:07:48.634Z,55.9
2023-10-31T09:13:40.362Z,56.6
2023-10-31T09:19:32.069Z,57.1
2023-10-31T09:25:24.340Z,57.6
2023-10-31T09:31:08.355Z,58.2
2023-10-31T09:36:46.944Z,58.6
2023-10-31T09:42:11.156Z,59.2
2023-10-31T09:47:48.449Z,59.6
2023-10-31T09:53:24.671Z,60.2
2023-10-31T09:58:46.802Z,60.6
2023-10-31T10:04:28.098Z,59.4
2023-10-31T10:10:20.090Z,58.3
2023-10-31T10:15:56.573Z,57.6
2023-10-31T10:21:49.454Z,56.7
2023-10-31T10:27:34.915Z,56.5
2023-10-31T10:33:11.930Z,57.7
2023-10-31T10:38:33.196Z,57.1
2023-10-31T10:43:55.341Z,56.1
2023-10-31T10:49:17.872Z,56.8
2023-10-31T10:54:24.479Z,57.9
2023-10-31T11:00:00.930Z,56.8
2023-10-31T11:05:23.075Z,56
2023-10-31T11:10:29.886Z,54.8
2023-10-31T11:15:50.984Z,53.9
2023-10-31T11:21:12.256Z,53.6
2023-10-31T11:26:26.751Z,52.8
2023-10-31T11:32:03.434Z,52
2023-10-31T11:37:40.074Z,51.4
2023-10-31T11:43:01.622Z,51
2023-10-31T11:48:23.336Z,50.8
2023-10-31T11:54:05.200Z,50.2
2023-10-31T11:59:41.065Z,49.6
2023-10-31T12:05:33.290Z,49.1
2023-10-31T12:11:28.585Z,48.6
2023-10-31T12:17:06.322Z,48.2
2023-10-31T12:22:44.363Z,48.5
2023-10-31T12:28:37.770Z,50.4
2023-10-31T12:34:14.154Z,51.8
2023-10-31T12:39:51.218Z,51.6
2023-10-31T12:45:27.799Z,49.8
2023-10-31T12:51:04.060Z,48.5
2023-10-31T12:56:41.781Z,47.5
2023-10-31T13:01:48.039Z,46.9
2023-10-31T13:07:43.215Z,46.4
2023-10-31T13:13:20.107Z,45.9
2023-10-31T13:18:56.880Z,45.4
2023-10-31T13:24:02.795Z,45.2
2023-10-31T13:29:08.564Z,45.8
2023-10-31T13:34:47.490Z,46.4
2023-10-31T13:40:09.225Z,46.8
2023-10-31T13:45:30.803Z,46.6
2023-10-31T13:51:08.174Z,46.4
2023-10-31T13:56:44.625Z,45.9
2023-10-31T14:02:21.826Z,45.2
2023-10-31T14:08:19.052Z,44.3
2023-10-31T14:13:57.854Z,43.6
2023-10-31T14:19:35.260Z,42.9
2023-10-31T14:25:18.178Z,42.3
2023-10-31T14:30:54.272Z,41.7
2023-10-31T14:36:01.740Z,40.1
2023-10-31T14:41:23.314Z,38.4
2023-10-31T14:47:00.764Z,37.3
2023-10-31T14:52:37.601Z,36.6
2023-10-31T14:58:14.637Z,35.9
2023-10-31T15:03:36.570Z,35.5
2023-10-31T15:09:18.211Z,35.1
2023-10-31T15:14:39.832Z,34.9
2023-10-31T15:20:17.011Z,34.6
2023-10-31T15:26:08.688Z,34.8
2023-10-31T15:31:47.833Z,34.8
2023-10-31T15:37:24.021Z,34.7
2023-10-31T15:42:53.861Z,34.7
2023-10-31T15:48:31.133Z,34.6
2023-10-31T15:54:08.126Z,34.6
2023-10-31T15:59:44.678Z,34.5
2023-10-31T16:10:31.256Z,33.9
2023-10-31T16:16:09.923Z,33.7
2023-10-31T16:21:47.721Z,33.5
2023-10-31T16:27:24.637Z,33.3
2023-10-31T16:33:01.100Z,33.2
2023-10-31T16:38:24.560Z,33.1
2023-10-31T16:44:03.644Z,33
2023-10-31T16:49:55.899Z,32.9
2023-10-31T16:55:02.050Z,32.8
2023-10-31T17:00:24.883Z,32.8
2023-10-31T17:06:02.374Z,32.7
2023-10-31T17:11:40.288Z,32.6
2023-10-31T17:17:32.405Z,32.6
2023-10-31T17:23:25.267Z,32.5
2023-10-31T17:29:09.066Z,32.4
2023-10-31T17:35:15.253Z,32.4
2023-10-31T17:41:07.907Z,32.4
2023-10-31T17:46:45.363Z,32.3
2023-10-31T17:52:38.311Z,32.3
2023-10-31T17:58:02.881Z,32.3
2023-10-31T18:03:40.872Z,32.2
2023-10-31T18:09:02.108Z,32.1
2023-10-31T18:14:42.419Z,32.1
2023-10-31T18:20:19.641Z,32.1
2023-10-31T18:25:57.629Z,32
2023-10-31T18:31:50.667Z,31.9
2023-10-31T18:37:55.623Z,31.9
2023-10-31T18:44:31.271Z,31.9
2023-10-31T18:50:32.934Z,31.8
2023-10-31T18:56:26.463Z,31.8
2023-10-31T19:02:05.677Z,31.8
2023-10-31T19:07:43.599Z,31.8
2023-10-31T19:13:06.016Z,31.7
2023-10-31T19:18:28.555Z,31.7
2023-10-31T19:24:22.476Z,31.6
2023-10-31T19:29:46.444Z,31.6
2023-10-31T19:35:39.714Z,31.6
2023-10-31T19:41:32.507Z,31.6
2023-10-31T19:47:27.332Z,31.5
2023-10-31T19:53:21.373Z,31.5
2023-10-31T19:59:16.437Z,31.5
2023-10-31T20:05:15.473Z,31.4
2023-10-31T20:11:08.681Z,31.4
2023-10-31T20:17:13.075Z,31.4
2023-10-31T20:22:51.182Z,31.3
2023-10-31T20:28:13.137Z,31.3
2023-10-31T20:33:50.758Z,31.3
2023-10-31T20:39:27.789Z,31.2
2023-10-31T20:45:04.571Z,31.1
2023-10-31T20:50:43.826Z,31.1
2023-10-31T20:56:36.385Z,31.1
2023-10-31T21:02:13.516Z,31
2023-10-31T21:07:37.638Z,31
2023-10-31T21:13:14.950Z,30.9
2023-10-31T21:18:52.510Z,30.9
2023-10-31T21:24:38.145Z,30.9
2023-10-31T21:30:15.397Z,30.9
2023-10-31T21:35:54.939Z,30.9
2023-10-31T21:41:46.592Z,30.8
2023-10-31T21:47:23.355Z,30.8
2023-10-31T21:53:14.666Z,30.8
2023-10-31T21:59:08.803Z,30.8
2023-10-31T22:05:02.729Z,30.8
2023-10-31T22:10:55.112Z,30.7
2023-10-31T22:16:32.000Z,30.7
2023-10-31T22:22:24.604Z,30.6
2023-10-31T22:28:16.524Z,30.6
2023-10-31T22:34:08.834Z,30.6
2023-10-31T22:39:45.463Z,30.6
2023-10-31T22:45:36.737Z,30.6
2023-10-31T22:50:58.764Z,30.5
2023-10-31T22:56:20.608Z,30.5
2023-10-31T23:02:13.003Z,30.5
2023-10-31T23:08:05.221Z,30.4
2023-10-31T23:14:03.069Z,30.4
2023-10-31T23:19:38.834Z,30.4
2023-10-31T23:25:30.657Z,30.4
2023-10-31T23:31:14.589Z,30.4
2023-10-31T23:37:08.656Z,30.3
2023-10-31T23:43:00.437Z,30.3
2023-10-31T23:48:37.207Z,30.3
2023-10-31T23:53:57.962Z,30.3
2023-10-31T23:59:49.356Z,30.3
